createdAt,value
2018-08-03T00:03:50.306Z,20.60
2018-08-03T00:13:13.676Z,20.60
2018-08-03T00:17:53.677Z,20.60
2018-08-03T00:22:34.176Z,20.50
2018-08-03T00:27:14.267Z,20.40
2018-08-03T00:31:55.319Z,20.40
2018-08-03T00:36:36.226Z,20.40
2018-08-03T00:41:16.425Z,20.30
2018-08-03T00:45:57.964Z,20.20
2018-08-03T00:50:39.517Z,20.10
2018-08-03T00:55:20.427Z,20.00
2018-08-03T01:00:02.764Z,19.90
2018-08-03T01:04:43.714Z,19.90
2018-08-03T01:09:23.771Z,20.00
2018-08-03T01:14:04.880Z,19.90
2018-08-03T01:18:46.360Z,19.80
2018-08-03T01:23:26.338Z,19.70
2018-08-03T01:28:07.166Z,19.70
2018-08-03T01:32:48.287Z,19.80
2018-08-03T01:37:30.498Z,19.80
2018-08-03T01:42:11.555Z,19.80
2018-08-03T01:46:52.224Z,19.80
2018-08-03T01:51:32.467Z,19.70
2018-08-03T01:56:12.615Z,19.50
2018-08-03T02:00:54.356Z,19.50
2018-08-03T02:05:35.300Z,19.50
2018-08-03T02:10:15.653Z,19.50
2018-08-03T02:19:35.307Z,19.50
2018-08-03T02:24:16.522Z,19.50
2018-08-03T02:28:56.707Z,19.40
2018-08-03T02:33:37.475Z,19.30
2018-08-03T02:38:17.873Z,19.20
2018-08-03T02:42:57.939Z,19.10
2018-08-03T02:47:38.123Z,19.00
2018-08-03T02:52:18.360Z,18.90
2018-08-03T02:56:58.583Z,18.90
2018-08-03T03:01:39.392Z,18.90
2018-08-03T03:06:20.399Z,19.00
2018-08-03T03:11:00.499Z,19.00
2018-08-03T03:15:41.659Z,18.90
2018-08-03T03:20:22.296Z,18.90
2018-08-03T03:25:02.547Z,18.90
2018-08-03T03:29:43.419Z,18.90
2018-08-03T03:34:23.895Z,18.90
2018-08-03T03:39:08.165Z,18.80
2018-08-03T03:43:48.355Z,18.80
2018-08-03T03:48:29.164Z,18.70
2018-08-03T03:53:09.929Z,18.70
2018-08-03T03:57:50.168Z,18.60
2018-08-03T04:02:31.433Z,18.70
2018-08-03T04:07:13.027Z,18.70
2018-08-03T04:11:53.067Z,18.60
2018-08-03T04:16:33.687Z,18.60
2018-08-03T04:21:15.752Z,18.60
2018-08-03T04:25:57.708Z,18.60
2018-08-03T04:30:38.915Z,18.60
2018-08-03T04:35:19.386Z,18.60
2018-08-03T04:39:59.335Z,18.60
2018-08-03T04:44:40.367Z,18.70
2018-08-03T04:49:20.377Z,18.70
2018-08-03T04:54:00.638Z,18.70
2018-08-03T05:03:21.292Z,18.80
2018-08-03T05:08:01.830Z,18.90
2018-08-03T05:12:43.067Z,19.00
2018-08-03T05:17:23.182Z,19.10
2018-08-03T05:22:04.246Z,19.30
2018-08-03T05:26:44.245Z,19.40
2018-08-03T05:31:25.727Z,19.50
2018-08-03T05:36:06.706Z,19.70
2018-08-03T05:40:47.575Z,19.90
2018-08-03T05:45:28.863Z,20.10
2018-08-03T05:50:09.288Z,20.40
2018-08-03T05:54:50.175Z,20.60
2018-08-03T05:59:31.284Z,20.80
2018-08-03T06:04:12.083Z,21.00
2018-08-03T06:08:53.153Z,21.30
2018-08-03T06:13:34.331Z,21.40
2018-08-03T06:18:15.629Z,21.60
2018-08-03T06:22:56.520Z,21.90
2018-08-03T06:27:37.437Z,22.20
2018-08-03T06:32:17.454Z,22.50
2018-08-03T06:36:58.479Z,22.90
2018-08-03T06:41:38.730Z,23.20
2018-08-03T06:46:18.919Z,23.50
2018-08-03T06:50:59.120Z,23.80
2018-08-03T06:55:40.919Z,24.10
2018-08-03T07:00:21.682Z,24.50
2018-08-03T07:05:01.728Z,24.90
2018-08-03T07:09:42.180Z,25.30
2018-08-03T07:14:22.908Z,25.70
2018-08-03T07:19:03.725Z,26.10
2018-08-03T07:23:43.620Z,26.50
2018-08-03T07:28:24.705Z,26.90
2018-08-03T07:33:05.088Z,27.30
2018-08-03T07:37:45.192Z,27.70
2018-08-03T07:42:25.488Z,28.10
2018-08-03T07:47:05.371Z,28.50
2018-08-03T07:51:47.146Z,28.50
2018-08-03T07:56:28.768Z,28.90
2018-08-03T08:01:09.959Z,29.40
2018-08-03T08:05:50.180Z,29.90
2018-08-03T08:10:30.275Z,30.30
2018-08-03T08:15:10.578Z,30.80
2018-08-03T08:19:50.915Z,31.30
2018-08-03T08:24:32.436Z,32.00
2018-08-03T08:29:13.392Z,33.30
2018-08-03T08:33:54.084Z,35.00
2018-08-03T08:38:34.728Z,36.30
2018-08-03T08:47:57.246Z,38.40
2018-08-03T08:52:37.769Z,39.20
2018-08-03T08:57:18.600Z,39.90
2018-08-03T09:01:59.132Z,40.50
2018-08-03T09:06:40.203Z,40.50
2018-08-03T09:11:20.596Z,40.70
2018-08-03T09:16:01.325Z,41.00
2018-08-03T09:20:43.155Z,41.60
2018-08-03T09:25:24.350Z,41.90
2018-08-03T09:30:06.079Z,42.10
2018-08-03T09:34:46.647Z,42.40
2018-08-03T09:39:26.715Z,42.10
2018-08-03T09:44:07.394Z,42.50
2018-08-03T09:48:47.340Z,41.80
2018-08-03T09:53:27.792Z,41.20
2018-08-03T09:58:10.412Z,40.90
2018-08-03T10:02:50.706Z,41.10
2018-08-03T10:07:31.008Z,41.40
2018-08-03T10:12:10.957Z,41.60
2018-08-03T10:16:51.948Z,42.00
2018-08-03T10:21:32.543Z,42.10
2018-08-03T10:26:13.624Z,41.80
2018-08-03T10:30:54.822Z,41.80
2018-08-03T10:35:36.188Z,41.80
2018-08-03T10:40:16.336Z,42.30
2018-08-03T10:44:58.908Z,42.30
2018-08-03T10:49:39.572Z,41.70
2018-08-03T10:54:19.733Z,40.70
2018-08-03T10:59:00.740Z,41.10
2018-08-03T11:03:41.400Z,41.70
2018-08-03T11:08:22.027Z,41.70
2018-08-03T11:13:02.008Z,41.20
2018-08-03T11:17:42.443Z,41.30
2018-08-03T11:22:22.343Z,42.40
2018-08-03T11:27:04.346Z,42.40
2018-08-03T11:31:45.013Z,42.00
2018-08-03T11:36:25.898Z,42.50
2018-08-03T11:41:06.312Z,43.20
2018-08-03T11:50:26.935Z,42.70
2018-08-03T11:55:07.705Z,41.70
2018-08-03T11:59:47.751Z,42.10
2018-08-03T12:04:28.688Z,41.70
2018-08-03T12:09:09.668Z,41.60
2018-08-03T12:13:49.979Z,40.60
2018-08-03T12:18:31.743Z,40.50
2018-08-03T12:23:12.725Z,41.20
2018-08-03T12:27:54.239Z,42.30
2018-08-03T12:37:14.862Z,42.60
2018-08-03T12:41:56.651Z,43.50
2018-08-03T12:46:37.533Z,42.60
2018-08-03T12:51:18.099Z,42.10
2018-08-03T12:55:58.677Z,41.10
2018-08-03T13:05:20.400Z,42.60
2018-08-03T13:10:00.980Z,42.60
2018-08-03T13:14:40.999Z,41.20
2018-08-03T13:19:21.962Z,39.20
2018-08-03T13:24:02.819Z,38.00
2018-08-03T13:33:23.979Z,40.40
2018-08-03T13:38:05.088Z,41.20
2018-08-03T13:42:46.811Z,41.00
2018-08-03T13:47:27.144Z,40.00
2018-08-03T13:52:08.175Z,39.10
2018-08-03T13:56:48.795Z,38.10
2018-08-03T14:01:44.012Z,36.90
2018-08-03T14:06:24.752Z,35.90
2018-08-03T14:11:05.279Z,35.80
2018-08-03T14:15:45.388Z,36.10
2018-08-03T14:20:26.431Z,36.50
2018-08-03T14:25:07.340Z,36.70
2018-08-03T14:29:48.570Z,36.50
2018-08-03T14:34:29.128Z,36.80
2018-08-03T14:39:10.837Z,36.80
2018-08-03T14:43:52.331Z,36.70
2018-08-03T14:48:32.552Z,36.80
2018-08-03T14:53:13.382Z,36.80
2018-08-03T14:57:54.361Z,36.70
2018-08-03T15:02:34.651Z,36.60
2018-08-03T15:07:14.688Z,36.40
2018-08-03T15:11:54.752Z,36.50
2018-08-03T15:16:35.055Z,36.50
2018-08-03T15:21:15.205Z,36.50
2018-08-03T15:25:56.476Z,36.50
2018-08-03T15:30:36.764Z,36.70
2018-08-03T15:35:17.953Z,36.70
2018-08-03T15:39:59.199Z,36.70
2018-08-03T15:44:40.136Z,36.60
2018-08-03T15:49:22.044Z,36.50
2018-08-03T15:54:02.283Z,36.40
2018-08-03T15:58:43.110Z,36.10
2018-08-03T16:03:24.250Z,35.60
2018-08-03T16:08:04.500Z,35.20
2018-08-03T16:12:45.337Z,34.80
2018-08-03T16:17:26.287Z,34.40
2018-08-03T16:22:06.860Z,34.20
2018-08-03T16:26:47.932Z,33.90
2018-08-03T16:31:29.636Z,33.60
2018-08-03T16:36:09.920Z,33.50
2018-08-03T16:40:51.860Z,33.50
2018-08-03T16:45:32.831Z,33.50
2018-08-03T16:50:13.090Z,33.50
2018-08-03T16:54:54.304Z,33.60
2018-08-03T17:04:14.930Z,33.50
2018-08-03T17:08:55.009Z,33.50
2018-08-03T17:13:36.529Z,33.70
2018-08-03T17:18:18.219Z,33.70
2018-08-03T17:22:59.948Z,33.60
2018-08-03T17:27:40.809Z,33.50
2018-08-03T17:32:20.962Z,33.40
2018-08-03T17:37:01.168Z,33.40
2018-08-03T17:41:42.054Z,33.40
2018-08-03T17:46:22.495Z,33.30
2018-08-03T17:51:02.635Z,33.30
2018-08-03T17:55:44.254Z,33.10
2018-08-03T18:00:26.264Z,33.00
2018-08-03T18:05:06.384Z,32.90
2018-08-03T18:09:46.584Z,32.70
2018-08-03T18:14:27.823Z,32.50
2018-08-03T18:19:08.048Z,32.30
2018-08-03T18:23:48.212Z,32.00
2018-08-03T18:28:29.446Z,31.60
2018-08-03T18:33:10.547Z,31.30
2018-08-03T18:37:50.651Z,31.00
2018-08-03T18:42:32.316Z,30.60
2018-08-03T18:47:12.474Z,30.30
2018-08-03T18:51:54.024Z,30.00
2018-08-03T18:56:34.566Z,29.70
2018-08-03T19:01:15.207Z,29.40
2018-08-03T19:05:56.429Z,29.10
2018-08-03T19:10:37.772Z,28.70
2018-08-03T19:15:20.135Z,28.40
2018-08-03T19:24:40.709Z,28.10
2018-08-03T19:29:20.648Z,27.90
2018-08-03T19:34:00.931Z,27.60
2018-08-03T19:38:41.496Z,27.40
2018-08-03T19:43:22.283Z,27.20
2018-08-03T19:48:03.360Z,27.00
2018-08-03T19:52:43.298Z,26.90
2018-08-03T19:57:25.075Z,26.60
2018-08-03T20:02:07.261Z,26.50
2018-08-03T20:06:48.085Z,26.30
2018-08-03T20:11:29.402Z,26.10
2018-08-03T20:16:10.239Z,25.90
2018-08-03T20:20:50.566Z,25.80
2018-08-03T20:25:31.010Z,25.60
2018-08-03T20:30:12.093Z,25.50
2018-08-03T20:34:52.228Z,25.30
2018-08-03T20:39:33.712Z,25.10
2018-08-03T20:44:14.759Z,25.00
2018-08-03T20:48:56.676Z,24.90
2018-08-03T20:58:17.769Z,24.70
2018-08-03T21:02:59.785Z,24.50
2018-08-03T21:07:40.625Z,24.50
2018-08-03T21:12:21.824Z,24.40
2018-08-03T21:17:02.005Z,24.20
2018-08-03T21:21:42.662Z,24.10
2018-08-03T21:26:23.232Z,24.10
2018-08-03T21:31:04.440Z,24.00
2018-08-03T21:35:45.271Z,23.80
2018-08-03T21:40:25.855Z,23.70
2018-08-03T21:45:06.716Z,23.60
2018-08-03T21:49:47.402Z,23.60
2018-08-03T21:54:27.801Z,23.50
2018-08-03T21:59:09.318Z,23.30
2018-08-03T22:03:49.367Z,23.20
2018-08-03T22:08:30.605Z,23.10
2018-08-03T22:13:11.591Z,23.10
2018-08-03T22:17:52.459Z,23.00
2018-08-03T22:22:34.370Z,22.90
2018-08-03T22:27:14.927Z,22.80
2018-08-03T22:31:55.135Z,22.70
2018-08-03T22:36:36.275Z,22.70
2018-08-03T22:41:17.630Z,22.50
2018-08-03T22:45:59.367Z,22.40
2018-08-03T22:50:41.166Z,22.40
2018-08-03T22:55:21.858Z,22.30
2018-08-03T23:00:02.786Z,22.30
2018-08-03T23:04:43.574Z,22.30
2018-08-03T23:09:25.247Z,22.20
2018-08-03T23:14:05.494Z,22.10
2018-08-03T23:18:46.554Z,22.00
2018-08-03T23:23:26.647Z,21.90
2018-08-03T23:28:07.117Z,21.90
2018-08-03T23:32:49.332Z,21.80
2018-08-03T23:37:29.485Z,21.80
2018-08-03T23:46:50.327Z,21.60
2018-08-03T23:51:30.904Z,21.50
2018-08-03T23:56:10.935Z,21.50
